Decoded Metar for KAIZ (KAISER MEM in MO, USA) (IATA:AIZ) | Meteo·Mobile Aviation Weather
aviador You're here:

KAIZ Decoded Metar

KAISER MEM in MO, USA
Report Time2018-10-22 12:56:00
UTC Time2018-10-22 13:52:33
Flight Rules vfr VFR
Wind150° at 03 kt
W.Decomp.*RWY 22: 1.0 kt HW 2.8 kt LCW
W.Rank150° ranks 4
Current wind is below 150° avg. (5.4)
Visibility9999 m
Phenomena:N/A
Clouds:N/A
Expected CloudBase > 400 ft AGL from Temp-Dew spread
CeilingNone
Temp03°C (ISA -10)
Dew Point02°C (93% RH)
AAT0.2°C
QNH1022 hPa
Density Alt-581 ft
Elevation869 ft
Report Wrong Elevation
Raw Report
KAIZ 221256Z AUTO 15003KT 10SM CLR 03/02 A3018 RMK AO2 SLP223
T00330022=

Extra information for KAIZ:More info

Metar Taf Metar & Taf Last 4 Metars F.Rules Stats Wind Profile Meteogram Temp Stats Airport Information Weather charts Add Link Nearby VenuesMetar ALERT Operation Metar Decoded Social comments

AIRNAV info for KAIZ